Time;durP1;ratioP1;P1;durP2;ratioP2;P2;SDS_P1;SDS_P2;PMS_P1;PMS_P2;Temp;Humidity;BMP_temperature;BMP_pressure;BME280_temperature;BME280_humidity;BME280_pressure;Samples;Min_cycle;Max_cycle;Signal;HPM_P1;HPM_P2
2022/08/03 00:03:36;;;;;;;3.05;1.45;;;;;;;21.79;57.91;100600.06;18428485;32;20097;-55
2022/08/03 00:13:39;;;;;;;2.67;1.60;;;;;;;21.68;58.17;100595.28;18427936;32;20113;-55
2022/08/03 00:23:44;;;;;;;4.25;2.10;;;;;;;21.53;58.61;100604.75;18433677;32;20096;-55
2022/08/03 00:33:54;;;;;;;4.12;1.98;;;;;;;21.45;59.08;100605.97;18436123;32;20089;-55
2022/08/03 00:44:03;;;;;;;4.57;2.22;;;;;;;21.37;59.52;100618.72;18436782;32;20093;-55
2022/08/03 00:54:06;;;;;;;4.20;2.00;;;;;;;21.20;60.53;100627.44;18435571;32;20108;-55
2022/08/03 01:04:11;;;;;;;4.00;2.03;;;;;;;21.07;60.99;100614.66;18435136;32;20093;-55
2022/08/03 01:14:21;;;;;;;3.33;1.75;;;;;;;21.05;61.13;100621.84;18435058;32;20122;-55
2022/08/03 01:24:36;;;;;;;3.97;1.95;;;;;;;20.95;61.59;100630.25;18434765;32;20097;-55
2022/08/03 01:35:05;;;;;;;4.55;2.08;;;;;;;21.01;60.92;100636.19;18435194;32;20461;-55
2022/08/03 01:45:11;;;;;;;5.60;2.50;;;;;;;20.94;61.23;100637.37;18433946;32;20164;-55
2022/08/03 01:55:17;;;;;;;3.50;2.00;;;;;;;20.77;62.06;100636.22;18445329;32;20440;-55
2022/08/03 02:05:21;;;;;;;5.03;2.30;;;;;;;20.71;61.57;100628.50;18456127;32;20089;-55
2022/08/03 02:15:26;;;;;;;3.85;1.87;;;;;;;20.48;62.87;100629.44;18433474;32;20092;-55
2022/08/03 02:25:30;;;;;;;5.85;2.30;;;;;;;20.39;63.05;100633.34;18433094;32;20705;-55
2022/08/03 02:35:36;;;;;;;4.85;2.10;;;;;;;20.51;62.13;100629.34;18432801;32;20144;-55
2022/08/03 02:45:43;;;;;;;5.32;2.30;;;;;;;20.51;62.27;100627.53;18431175;32;20080;-55
2022/08/03 02:55:50;;;;;;;5.60;2.45;;;;;;;20.55;62.04;100625.62;18432283;32;20112;-55
2022/08/03 03:05:54;;;;;;;4.43;2.22;;;;;;;20.36;62.63;100631.66;18431901;32;20093;-55
2022/08/03 03:16:03;;;;;;;5.03;2.47;;;;;;;20.21;63.07;100632.28;18431290;32;20076;-55
2022/08/03 03:26:07;;;;;;;5.15;2.40;;;;;;;20.17;63.15;100635.97;18430641;32;20527;-55
2022/08/03 03:36:12;;;;;;;4.68;2.30;;;;;;;20.21;63.05;100641.09;18431200;32;20135;-55
2022/08/03 03:46:15;;;;;;;5.03;2.17;;;;;;;20.06;63.78;100633.72;18429650;32;20081;-55
2022/08/03 03:56:20;;;;;;;5.80;3.10;;;;;;;20.09;63.36;100641.56;18433813;32;20127;-55
2022/08/03 04:16:48;;;;;;;4.53;2.42;;;;;;;20.42;63.15;100648.28;18436768;32;20112;-55
2022/08/03 04:26:51;;;;;;;5.47;2.80;;;;;;;21.14;62.25;100657.72;18436083;32;20096;-55
2022/08/03 04:36:59;;;;;;;5.12;2.67;;;;;;;21.68;60.39;100662.53;18436165;32;20465;-55
2022/08/03 04:47:03;;;;;;;9.45;3.30;;;;;;;21.86;60.76;100668.84;18435586;32;20464;-55
2022/08/03 04:57:07;;;;;;;5.87;3.10;;;;;;;22.37;59.83;100678.91;18435564;32;20093;-55
2022/08/03 05:07:12;;;;;;;7.03;3.15;;;;;;;22.72;59.84;100696.78;18459909;32;20089;-55
2022/08/03 05:17:17;;;;;;;5.07;3.03;;;;;;;22.98;59.91;100698.16;18434980;32;20142;-55
2022/08/03 05:27:20;;;;;;;6.95;3.55;;;;;;;23.40;59.27;100693.44;18434632;32;20108;-55
2022/08/03 05:37:25;;;;;;;5.82;3.03;;;;;;;23.95;58.70;100699.47;18434467;32;20162;-55
2022/08/03 05:47:29;;;;;;;8.10;3.30;;;;;;;24.45;58.55;100701.28;18434075;32;20458;-55
2022/08/03 05:57:33;;;;;;;7.15;3.45;;;;;;;24.83;59.15;100700.94;18433783;32;20117;-55
2022/08/03 06:07:37;;;;;;;7.55;3.70;;;;;;;25.70;56.60;100717.22;18433984;32;20101;-55
2022/08/03 06:17:47;;;;;;;8.00;3.75;;;;;;;25.94;56.21;100723.84;18433287;32;20464;-55
2022/08/03 06:27:51;;;;;;;6.68;3.53;;;;;;;26.02;54.09;100722.38;18432920;32;20119;-55
2022/08/03 06:37:55;;;;;;;6.72;3.53;;;;;;;26.34;51.39;100721.34;18432795;32;20093;-55
2022/08/03 06:48:00;;;;;;;8.80;3.70;;;;;;;27.63;50.02;100725.47;18432536;32;20565;-55
2022/08/03 06:58:05;;;;;;;7.65;3.85;;;;;;;28.19;46.83;100724.28;18428753;32;20100;-55
2022/08/03 07:08:09;;;;;;;7.07;3.92;;;;;;;28.56;45.75;100735.03;18429028;32;20107;-55
2022/08/03 07:18:13;;;;;;;9.52;3.80;;;;;;;29.11;44.41;100728.37;18429936;32;20116;-56
2022/08/03 07:28:17;;;;;;;7.87;3.58;;;;;;;29.19;44.84;100731.34;18429221;32;20112;-56
2022/08/03 07:38:21;;;;;;;7.75;3.80;;;;;;;29.64;43.59;100725.22;18429573;32;20123;-56
2022/08/03 07:48:24;;;;;;;8.43;4.03;;;;;;;29.82;42.63;100730.16;18429284;32;20445;-55
2022/08/03 07:58:29;;;;;;;8.45;3.72;;;;;;;30.15;38.33;100712.31;18429053;32;20100;-55
2022/08/03 08:08:32;;;;;;;7.30;3.53;;;;;;;30.78;38.67;100709.03;18428344;32;20119;-55
2022/08/03 08:18:37;;;;;;;7.55;3.67;;;;;;;31.15;36.32;100714.00;18427726;32;20115;-55
2022/08/03 08:28:40;;;;;;;9.15;4.10;;;;;;;29.58;40.69;100713.12;18427188;32;20158;-55
2022/08/03 08:38:45;;;;;;;7.22;3.60;;;;;;;29.73;41.69;100719.13;18427953;32;20159;-55
2022/08/03 08:48:49;;;;;;;7.45;3.87;;;;;;;29.61;41.58;100717.41;18435846;32;20101;-55
2022/08/03 08:58:57;;;;;;;7.78;3.75;;;;;;;30.19;40.46;100708.41;18458263;32;20092;-56
2022/08/03 09:09:01;;;;;;;7.47;3.97;;;;;;;30.90;37.25;100703.59;18498678;32;20121;-55
2022/08/03 09:19:13;;;;;;;7.50;3.58;;;;;;;31.54;35.96;100699.97;18500217;32;20157;-56
2022/08/03 09:29:20;;;;;;;6.15;3.12;;;;;;;32.01;34.38;100695.06;18499340;32;20092;-55
2022/08/03 09:39:30;;;;;;;8.23;3.20;;;;;;;32.08;33.37;100699.78;18498907;32;20111;-56
2022/08/03 09:49:57;;;;;;;7.43;3.35;;;;;;;32.65;31.84;100674.91;18498161;32;20119;-56
2022/08/03 10:00:11;;;;;;;6.70;3.10;;;;;;;33.50;31.96;100676.16;18497391;32;20093;-56
2022/08/03 10:10:16;;;;;;;6.50;3.33;;;;;;;32.25;31.57;100663.19;18496644;32;20188;-55
2022/08/03 10:20:37;;;;;;;6.30;3.00;;;;;;;32.33;31.04;100661.59;18497350;32;20108;-56
2022/08/03 10:30:41;;;;;;;6.00;3.22;;;;;;;33.86;29.31;100637.53;18495854;32;20101;-55
2022/08/03 10:40:46;;;;;;;7.32;2.97;;;;;;;34.07;28.34;100629.19;18480932;32;20436;-55
2022/08/03 10:50:54;;;;;;;6.18;3.33;;;;;;;33.79;29.37;100629.16;18438417;32;20101;-55
2022/08/03 11:00:59;;;;;;;7.18;3.30;;;;;;;34.29;27.56;100610.78;18478240;32;20110;-55
2022/08/03 11:11:24;;;;;;;4.82;2.47;;;;;;;33.99;28.23;100602.81;18495938;32;20489;-55
2022/08/03 11:22:07;;;;;;;4.25;2.42;;;;;;;35.01;28.16;100588.16;18474605;32;675753;-56
2022/08/03 11:32:11;;;;;;;4.00;2.37;;;;;;;35.80;26.97;100571.81;18466191;32;20459;-56
2022/08/03 11:42:46;;;;;;;3.62;2.30;;;;;;;35.75;25.51;100563.28;18423940;32;20431;-55
2022/08/03 11:52:51;;;;;;;6.37;2.60;;;;;;;36.38;25.03;100557.50;18425796;32;20166;-55
2022/08/03 12:02:59;;;;;;;3.75;2.08;;;;;;;36.65;24.10;100550.88;18484819;32;20089;-55
2022/08/03 12:13:07;;;;;;;3.73;2.13;;;;;;;35.23;24.67;100548.81;18492037;32;20184;-55
2022/08/03 12:23:30;;;;;;;4.63;2.10;;;;;;;36.06;23.39;100535.56;18493620;32;20092;-55
2022/08/03 12:33:57;;;;;;;4.53;2.35;;;;;;;36.48;22.27;100527.41;18465949;32;20107;-56
2022/08/03 12:44:03;;;;;;;4.53;2.65;;;;;;;34.57;24.54;100527.53;18450345;32;20113;-56
2022/08/03 12:54:08;;;;;;;4.30;2.25;;;;;;;35.16;24.50;100514.38;18464969;32;20170;-56
2022/08/03 13:04:26;;;;;;;3.33;2.00;;;;;;;33.98;24.47;100513.62;18463382;32;20089;-56
2022/08/03 13:14:33;;;;;;;5.07;2.40;;;;;;;34.95;24.55;100502.88;18462733;32;20101;-55
2022/08/03 13:24:36;;;;;;;4.30;2.17;;;;;;;34.88;24.36;100495.56;18480023;32;20097;-56
2022/08/03 13:34:40;;;;;;;4.47;2.15;;;;;;;34.56;23.35;100481.66;18487828;32;20089;-56
2022/08/03 13:44:44;;;;;;;4.55;2.30;;;;;;;34.35;24.97;100480.13;18374357;32;20483;-56
2022/08/03 13:54:48;;;;;;;5.12;2.03;;;;;;;35.49;23.41;100477.37;18427251;32;20112;-57
2022/08/03 14:04:53;;;;;;;4.75;2.15;;;;;;;34.84;22.98;100463.34;18432162;32;20453;-56
2022/08/03 14:14:58;;;;;;;2.97;1.90;;;;;;;34.71;24.67;100463.78;18432575;32;20085;-55
2022/08/03 14:25:06;;;;;;;3.53;1.90;;;;;;;35.26;24.20;100450.00;18447312;32;20097;-56
2022/08/03 14:35:14;;;;;;;4.27;2.40;;;;;;;35.64;23.02;100433.31;18492895;32;20152;-56
2022/08/03 14:45:18;;;;;;;3.12;1.70;;;;;;;34.89;24.12;100430.31;18483411;32;20093;-56
2022/08/03 14:55:24;;;;;;;6.30;2.12;;;;;;;35.39;23.63;100422.41;18492387;32;20111;-56
2022/08/03 15:05:40;;;;;;;3.80;2.40;;;;;;;35.36;23.88;100420.84;18496365;32;20103;-56
2022/08/03 15:15:44;;;;;;;3.62;2.35;;;;;;;35.19;24.32;100428.09;18485475;32;20105;-55
2022/08/03 15:26:17;;;;;;;3.45;2.08;;;;;;;34.87;25.71;100424.22;18485850;32;20092;-57
2022/08/03 15:36:40;;;;;;;3.85;2.10;;;;;;;35.20;24.08;100407.25;18489872;32;20152;-56
2022/08/03 15:46:43;;;;;;;4.93;2.40;;;;;;;34.61;25.50;100419.66;18491474;32;20146;-55
2022/08/03 15:56:48;;;;;;;5.10;2.37;;;;;;;34.68;25.63;100414.47;18500342;32;20084;-55
2022/08/03 16:06:51;;;;;;;5.70;2.45;;;;;;;34.30;25.95;100406.59;18497215;32;20108;-55
2022/08/03 16:16:57;;;;;;;5.00;2.55;;;;;;;33.87;26.36;100411.81;18501383;32;20145;-55
2022/08/03 16:27:01;;;;;;;4.85;2.22;;;;;;;33.73;26.42;100405.97;18499565;32;20101;-56
2022/08/03 16:37:06;;;;;;;3.65;2.20;;;;;;;33.83;26.03;100397.75;18500281;32;20127;-55
2022/08/03 16:47:31;;;;;;;4.55;2.20;;;;;;;33.66;26.11;100398.59;18497493;32;20174;-56
2022/08/03 16:57:36;;;;;;;4.72;2.30;;;;;;;33.50;26.33;100400.16;18500264;32;20097;-56
2022/08/03 17:08:01;;;;;;;7.20;2.50;;;;;;;33.33;26.80;100394.56;18500589;32;20088;-56
2022/08/03 17:18:17;;;;;;;4.57;2.22;;;;;;;33.21;27.41;100406.59;18498425;32;20145;-55
2022/08/03 17:28:24;;;;;;;3.45;2.25;;;;;;;33.12;27.92;100415.63;18499051;32;20128;-56
2022/08/03 17:38:49;;;;;;;5.72;2.47;;;;;;;32.67;30.35;100423.47;18497382;32;20112;-56
2022/08/03 17:48:55;;;;;;;6.53;2.80;;;;;;;32.16;32.76;100433.66;18499690;32;20418;-55
2022/08/03 17:59:04;;;;;;;5.22;2.53;;;;;;;31.65;35.20;100437.31;18498305;32;20076;-55
2022/08/03 18:09:11;;;;;;;6.55;2.90;;;;;;;30.95;36.35;100439.94;18498111;32;20105;-55
2022/08/03 18:19:37;;;;;;;6.62;3.60;;;;;;;30.28;39.48;100443.81;18498993;32;20088;-55
2022/08/03 18:30:00;;;;;;;6.53;2.95;;;;;;;29.73;42.05;100449.25;18496527;32;20463;-56
2022/08/03 18:40:06;;;;;;;9.27;3.40;;;;;;;29.11;42.04;100457.78;18452301;32;20093;-55
2022/08/03 18:50:14;;;;;;;6.32;3.22;;;;;;;28.49;44.27;100462.59;18487962;32;20417;-55
2022/08/03 19:00:23;;;;;;;6.22;3.05;;;;;;;27.97;45.45;100482.50;18487521;32;20392;-56
2022/08/03 19:10:50;;;;;;;6.72;3.25;;;;;;;27.56;45.39;100495.31;18493597;32;20166;-55
2022/08/03 19:21:06;;;;;;;6.80;3.22;;;;;;;26.99;46.94;100502.03;18490787;32;20117;-55
2022/08/03 19:31:17;;;;;;;6.20;3.30;;;;;;;26.68;48.64;100521.06;18476611;32;20090;-55
2022/08/03 19:41:28;;;;;;;7.57;3.65;;;;;;;26.41;47.82;100519.28;18371886;32;20097;-55
2022/08/03 19:51:52;;;;;;;7.85;3.87;;;;;;;26.12;48.77;100529.22;18432932;32;20119;-56
2022/08/03 20:02:07;;;;;;;8.63;3.90;;;;;;;26.00;49.60;100537.09;18380045;32;20154;-56
2022/08/03 20:12:20;;;;;;;7.30;3.47;;;;;;;25.69;49.87;100532.88;18363106;32;20081;-56
2022/08/03 20:22:34;;;;;;;6.53;3.37;;;;;;;25.40;51.12;100543.56;18363255;32;20350;-55
2022/08/03 20:32:41;;;;;;;6.72;3.33;;;;;;;25.02;52.57;100543.16;18412327;32;20111;-55
2022/08/03 20:42:46;;;;;;;7.65;4.00;;;;;;;24.79;52.55;100542.75;18490493;32;20136;-55
2022/08/03 20:52:49;;;;;;;6.68;3.80;;;;;;;24.53;52.97;100550.44;18484946;32;20115;-55
2022/08/03 21:02:54;;;;;;;7.00;3.17;;;;;;;24.21;54.00;100545.19;18484791;32;20100;-55
2022/08/03 21:13:01;;;;;;;7.53;3.83;;;;;;;24.18;53.71;100540.00;18491706;32;20104;-55
2022/08/03 21:23:23;;;;;;;9.32;3.97;;;;;;;23.76;55.34;100554.81;18478291;32;20092;-55
2022/08/03 21:33:47;;;;;;;7.25;3.50;;;;;;;23.73;56.20;100560.31;18493709;32;20101;-55
2022/08/03 21:43:51;;;;;;;9.88;4.43;;;;;;;23.49;57.02;100568.69;18487401;32;20100;-55
2022/08/03 21:53:54;;;;;;;8.23;4.32;;;;;;;23.35;56.62;100574.75;18493491;32;20097;-55
2022/08/03 22:04:07;;;;;;;9.80;4.28;;;;;;;23.22;57.31;100582.50;18498024;32;20119;-55
2022/08/03 22:14:14;;;;;;;7.35;3.50;;;;;;;23.07;58.20;100587.69;18491238;32;20122;-56
2022/08/03 22:24:20;;;;;;;9.13;4.30;;;;;;;23.00;57.55;100592.50;18440899;32;20090;-56
2022/08/03 22:34:26;;;;;;;7.70;4.32;;;;;;;22.66;59.32;100591.53;18429782;32;20571;-55
2022/08/03 22:44:31;;;;;;;7.78;3.78;;;;;;;22.47;59.89;100604.84;18429717;32;20097;-55
2022/08/03 22:54:35;;;;;;;8.32;4.00;;;;;;;22.51;59.02;100605.56;18428919;32;20101;-55
2022/08/03 23:04:41;;;;;;;8.30;4.45;;;;;;;22.17;59.90;100608.03;18453538;32;20440;-55
2022/08/03 23:14:45;;;;;;;9.60;4.32;;;;;;;22.18;60.24;100628.38;18480302;32;20104;-55
2022/08/03 23:24:50;;;;;;;9.10;4.57;;;;;;;22.10;60.51;100627.88;18427942;32;20126;-56
2022/08/03 23:45:19;;;;;;;7.47;3.12;;;;;;;21.90;61.67;100632.31;18491649;32;20120;-56
2022/08/03 23:55:37;;;;;;;6.25;2.85;;;;;;;22.13;58.38;100630.41;18491022;32;20134;-55
